createdAt,value
2018-05-27T00:00:29.491Z,87.22
2018-05-27T00:01:00.669Z,87.26
2018-05-27T00:01:31.851Z,87.38
2018-05-27T00:02:03.079Z,87.59
2018-05-27T00:02:34.267Z,87.77
2018-05-27T00:03:05.460Z,87.82
2018-05-27T00:03:36.691Z,87.80
2018-05-27T00:04:07.877Z,87.92
2018-05-27T00:04:39.060Z,88.11
2018-05-27T00:05:10.241Z,88.11
2018-05-27T00:05:41.431Z,88.20
2018-05-27T00:06:12.641Z,88.34
2018-05-27T00:06:43.821Z,88.43
2018-05-27T00:07:15.041Z,88.35
2018-05-27T00:07:46.229Z,88.32
2018-05-27T00:08:17.412Z,88.29
2018-05-27T00:08:48.592Z,88.15
2018-05-27T00:09:19.778Z,87.99
2018-05-27T00:09:50.963Z,87.91
2018-05-27T00:10:22.152Z,87.49
2018-05-27T00:10:53.386Z,87.43
2018-05-27T00:11:24.589Z,87.22
2018-05-27T00:11:55.781Z,87.03
2018-05-27T00:12:26.969Z,86.85
2018-05-27T00:12:58.163Z,86.85
2018-05-27T00:13:29.361Z,86.83
2018-05-27T00:14:00.552Z,86.82
2018-05-27T00:14:31.745Z,86.59
2018-05-27T00:15:02.940Z,86.50
2018-05-27T00:15:34.150Z,86.26
2018-05-27T00:16:05.379Z,86.17
2018-05-27T00:16:36.564Z,86.22
2018-05-27T00:17:07.751Z,86.09
2018-05-27T00:17:39.257Z,86.05
2018-05-27T00:18:10.445Z,85.77
2018-05-27T00:18:41.626Z,85.67
2018-05-27T00:19:12.809Z,85.86
2018-05-27T00:19:43.991Z,86.03
2018-05-27T00:20:15.174Z,86.18
2018-05-27T00:20:46.349Z,86.34
2018-05-27T00:21:17.570Z,86.34
2018-05-27T00:21:48.748Z,86.29
2018-05-27T00:22:19.933Z,86.02
2018-05-27T00:22:51.185Z,85.87
2018-05-27T00:23:22.364Z,85.78
2018-05-27T00:23:53.545Z,85.70
2018-05-27T00:24:24.736Z,85.39
2018-05-27T00:24:55.917Z,85.56
2018-05-27T00:25:27.141Z,85.53
2018-05-27T00:25:58.330Z,85.52
2018-05-27T00:26:29.553Z,85.28
2018-05-27T00:27:00.733Z,85.32
2018-05-27T00:27:31.917Z,85.23
2018-05-27T00:28:03.106Z,85.12
2018-05-27T00:28:34.292Z,85.14
2018-05-27T00:29:05.477Z,85.16
2018-05-27T00:29:36.715Z,85.20
2018-05-27T00:30:07.940Z,85.30
2018-05-27T00:30:39.121Z,85.37
2018-05-27T00:31:10.553Z,85.42
2018-05-27T00:31:41.749Z,85.37
2018-05-27T00:32:12.932Z,85.41
2018-05-27T00:32:44.121Z,85.66
2018-05-27T00:33:15.302Z,85.90
2018-05-27T00:33:46.497Z,85.77
2018-05-27T00:34:17.725Z,85.84
2018-05-27T00:34:48.920Z,85.88
2018-05-27T00:35:20.148Z,85.75
2018-05-27T00:35:51.324Z,85.63
2018-05-27T00:36:22.510Z,85.45
2018-05-27T00:36:53.701Z,85.45
2018-05-27T00:37:24.885Z,85.62
2018-05-27T00:37:56.069Z,85.53
2018-05-27T00:38:27.252Z,85.76
2018-05-27T00:38:58.437Z,86.02
2018-05-27T00:39:29.652Z,85.85
2018-05-27T00:40:00.835Z,85.51
2018-05-27T00:40:32.053Z,85.40
2018-05-27T00:41:03.277Z,85.45
2018-05-27T00:41:34.464Z,85.17
2018-05-27T00:42:05.644Z,85.15
2018-05-27T00:42:36.834Z,84.99
2018-05-27T00:43:08.061Z,84.82
2018-05-27T00:43:39.243Z,84.50
2018-05-27T00:44:10.429Z,84.48
2018-05-27T00:44:41.612Z,84.49
2018-05-27T00:45:12.792Z,84.79
2018-05-27T00:45:43.983Z,84.80
2018-05-27T00:46:15.168Z,84.78
2018-05-27T00:46:46.358Z,84.86
2018-05-27T00:47:17.550Z,84.96
2018-05-27T00:47:48.772Z,85.01
2018-05-27T00:48:19.947Z,85.07
2018-05-27T00:48:51.133Z,85.15
2018-05-27T00:49:22.313Z,85.20
2018-05-27T00:49:53.578Z,85.31
2018-05-27T00:50:25.493Z,85.27
2018-05-27T00:50:56.675Z,85.28
2018-05-27T00:51:27.857Z,85.31
2018-05-27T00:51:59.037Z,85.33
2018-05-27T00:52:30.318Z,85.41
2018-05-27T00:53:01.502Z,85.49
2018-05-27T00:53:32.678Z,85.55
2018-05-27T00:54:03.865Z,85.66
2018-05-27T00:54:35.046Z,85.90
2018-05-27T00:55:06.225Z,86.07
2018-05-27T00:55:37.413Z,86.09
2018-05-27T00:56:08.608Z,86.02
2018-05-27T00:56:39.792Z,86.13
2018-05-27T00:57:10.975Z,86.25
2018-05-27T00:57:43.426Z,86.20
2018-05-27T00:58:14.608Z,86.00
2018-05-27T00:58:45.802Z,85.89
2018-05-27T00:59:16.990Z,85.60
2018-05-27T00:59:48.182Z,85.27
2018-05-27T01:00:19.370Z,85.30
2018-05-27T01:00:50.554Z,85.26
2018-05-27T01:01:21.747Z,85.21
2018-05-27T01:01:52.929Z,85.23
2018-05-27T01:02:24.165Z,85.34
2018-05-27T01:02:55.353Z,85.42
2018-05-27T01:03:26.545Z,85.35
2018-05-27T01:03:57.732Z,85.38
2018-05-27T01:04:28.936Z,85.49
2018-05-27T01:05:00.152Z,85.59
2018-05-27T01:05:31.357Z,85.67
2018-05-27T01:06:02.541Z,85.84
2018-05-27T01:06:33.761Z,85.97
2018-05-27T01:07:04.944Z,86.15
2018-05-27T01:07:36.137Z,86.22
2018-05-27T01:08:07.326Z,86.33
2018-05-27T01:08:38.512Z,86.47
2018-05-27T01:09:09.700Z,86.49
2018-05-27T01:09:40.884Z,86.60
2018-05-27T01:10:12.876Z,86.58
2018-05-27T01:10:44.057Z,86.65
2018-05-27T01:11:15.301Z,86.65
2018-05-27T01:11:46.548Z,86.66
2018-05-27T01:12:17.737Z,86.67
2018-05-27T01:12:48.924Z,86.70
2018-05-27T01:13:20.106Z,86.79
2018-05-27T01:13:51.290Z,86.77
2018-05-27T01:14:22.468Z,86.73
2018-05-27T01:14:53.653Z,86.70
2018-05-27T01:15:24.837Z,86.64
2018-05-27T01:15:56.025Z,86.66
2018-05-27T01:16:27.249Z,86.57
2018-05-27T01:16:58.432Z,86.53
2018-05-27T01:17:29.650Z,86.54
2018-05-27T01:18:00.830Z,86.53
2018-05-27T01:18:32.044Z,86.49
2018-05-27T01:19:03.233Z,86.43
2018-05-27T01:19:34.410Z,86.37
2018-05-27T01:20:05.593Z,86.37
2018-05-27T01:20:36.772Z,86.38
2018-05-27T01:21:07.954Z,86.11
2018-05-27T01:21:39.146Z,86.16
2018-05-27T01:22:10.404Z,86.03
2018-05-27T01:22:41.592Z,85.62
2018-05-27T01:23:12.783Z,85.53
2018-05-27T01:23:43.964Z,85.46
2018-05-27T01:24:15.140Z,85.56
2018-05-27T01:24:46.321Z,85.76
2018-05-27T01:25:17.498Z,85.73
2018-05-27T01:25:48.684Z,85.48
2018-05-27T01:26:19.873Z,85.50
2018-05-27T01:26:51.124Z,85.33
2018-05-27T01:27:22.943Z,85.48
2018-05-27T01:27:55.033Z,85.68
2018-05-27T01:28:26.216Z,85.60
2018-05-27T01:28:57.397Z,85.90
2018-05-27T01:29:28.573Z,85.84
2018-05-27T01:29:59.749Z,85.81
2018-05-27T01:30:30.960Z,85.25
2018-05-27T01:31:02.145Z,85.06
2018-05-27T01:31:33.338Z,85.19
2018-05-27T01:32:04.552Z,85.11
2018-05-27T01:32:35.737Z,85.10
2018-05-27T01:33:06.920Z,85.40
2018-05-27T01:33:38.100Z,85.40
2018-05-27T01:34:09.287Z,84.95
2018-05-27T01:34:40.460Z,84.76
2018-05-27T01:35:11.643Z,84.58
2018-05-27T01:35:42.857Z,84.46
2018-05-27T01:36:14.046Z,84.34
2018-05-27T01:36:45.234Z,84.50
2018-05-27T01:37:16.458Z,84.57
2018-05-27T01:37:47.642Z,84.70
2018-05-27T01:38:18.833Z,84.70
2018-05-27T01:38:50.041Z,84.97
2018-05-27T01:39:21.221Z,84.72
2018-05-27T01:39:52.452Z,84.99
2018-05-27T01:40:23.645Z,85.01
2018-05-27T01:40:54.849Z,85.11
2018-05-27T01:41:26.040Z,85.12
2018-05-27T01:41:57.221Z,85.16
2018-05-27T01:42:28.408Z,85.22
2018-05-27T01:42:59.605Z,85.10
2018-05-27T01:43:30.805Z,85.07
2018-05-27T01:44:03.217Z,84.90
2018-05-27T01:44:34.967Z,85.07
2018-05-27T01:45:06.160Z,85.31
2018-05-27T01:45:37.402Z,85.34
2018-05-27T01:46:08.644Z,85.39
2018-05-27T01:46:39.826Z,85.38
2018-05-27T01:47:11.005Z,85.37
2018-05-27T01:47:42.265Z,85.43
2018-05-27T01:48:13.445Z,85.45
2018-05-27T01:48:45.253Z,85.36
2018-05-27T01:49:16.429Z,85.51
2018-05-27T01:49:47.612Z,85.44
2018-05-27T01:50:18.792Z,85.32
2018-05-27T01:50:49.994Z,85.29
2018-05-27T01:51:21.181Z,85.17
2018-05-27T01:51:52.364Z,85.22
2018-05-27T01:52:23.544Z,85.12
2018-05-27T01:52:54.771Z,84.84
2018-05-27T01:53:25.957Z,84.76
2018-05-27T01:53:57.141Z,84.69
2018-05-27T01:54:28.321Z,84.60
2018-05-27T01:54:59.502Z,84.46
2018-05-27T01:55:30.684Z,84.47
2018-05-27T01:56:01.869Z,84.48
2018-05-27T01:56:33.052Z,84.50
2018-05-27T01:57:04.270Z,84.74
2018-05-27T01:57:35.454Z,84.99
2018-05-27T01:58:06.633Z,85.04
2018-05-27T01:58:37.813Z,84.94
2018-05-27T01:59:09.051Z,84.96
2018-05-27T01:59:40.236Z,84.96
2018-05-27T02:00:11.423Z,85.18
2018-05-27T02:00:42.613Z,85.15
2018-05-27T02:01:13.798Z,85.23
2018-05-27T02:01:44.989Z,85.21
2018-05-27T02:02:16.185Z,85.11
2018-05-27T02:02:47.371Z,85.50
2018-05-27T02:03:18.560Z,85.47
2018-05-27T02:03:49.751Z,85.43
2018-05-27T02:04:20.987Z,85.55
2018-05-27T02:04:52.169Z,85.43
2018-05-27T02:05:23.357Z,85.56
2018-05-27T02:05:54.578Z,85.40
2018-05-27T02:06:25.759Z,85.50
2018-05-27T02:06:56.946Z,85.38
2018-05-27T02:07:28.145Z,85.51
2018-05-27T02:07:59.338Z,85.57
2018-05-27T02:08:30.520Z,85.51
2018-05-27T02:09:01.705Z,85.44
2018-05-27T02:09:32.899Z,85.39
2018-05-27T02:10:04.092Z,85.48
2018-05-27T02:10:35.306Z,85.46
2018-05-27T02:11:06.498Z,85.25
2018-05-27T02:11:37.726Z,85.24
2018-05-27T02:12:08.909Z,85.09
2018-05-27T02:12:40.097Z,85.02
2018-05-27T02:13:11.901Z,85.15
2018-05-27T02:13:43.091Z,85.04
2018-05-27T02:14:14.265Z,85.00
2018-05-27T02:14:45.441Z,85.07
2018-05-27T02:15:16.634Z,85.24
2018-05-27T02:15:47.825Z,85.52
2018-05-27T02:16:19.064Z,85.38
2018-05-27T02:16:50.244Z,85.41
2018-05-27T02:17:21.469Z,85.42
2018-05-27T02:17:52.651Z,85.26
2018-05-27T02:18:23.822Z,85.07
2018-05-27T02:18:55.023Z,85.04
2018-05-27T02:19:26.204Z,85.04
2018-05-27T02:19:57.395Z,84.95
2018-05-27T02:20:28.587Z,84.87
2018-05-27T02:20:59.787Z,84.73
2018-05-27T02:21:30.965Z,84.55
2018-05-27T02:22:02.152Z,84.45
2018-05-27T02:22:33.374Z,84.47
2018-05-27T02:23:04.549Z,84.64
2018-05-27T02:23:35.744Z,84.52
2018-05-27T02:24:06.950Z,84.45
2018-05-27T02:24:38.138Z,84.59
2018-05-27T02:25:09.319Z,84.58
2018-05-27T02:25:40.502Z,84.73
2018-05-27T02:26:11.680Z,84.61
2018-05-27T02:26:42.869Z,84.61
2018-05-27T02:27:14.091Z,84.53
2018-05-27T02:27:45.289Z,84.72
2018-05-27T02:28:16.480Z,84.84
2018-05-27T02:28:47.661Z,84.62
2018-05-27T02:29:18.851Z,84.82
2018-05-27T02:29:50.034Z,84.87
2018-05-27T02:30:21.218Z,84.82
2018-05-27T02:30:52.441Z,85.05
2018-05-27T02:31:23.625Z,84.76
2018-05-27T02:31:54.855Z,84.76
2018-05-27T02:32:26.041Z,84.70
2018-05-27T02:32:57.221Z,84.43
2018-05-27T02:33:28.437Z,84.44
2018-05-27T02:33:59.620Z,84.20
2018-05-27T02:34:30.813Z,83.69
2018-05-27T02:35:02.018Z,83.76
2018-05-27T02:35:33.213Z,84.13
2018-05-27T02:36:04.398Z,84.19
2018-05-27T02:36:35.594Z,84.12
2018-05-27T02:37:06.781Z,84.00
2018-05-27T02:37:37.964Z,83.92
2018-05-27T02:38:09.153Z,84.04
2018-05-27T02:38:40.413Z,84.16
2018-05-27T02:39:11.596Z,84.08
2018-05-27T02:39:42.781Z,84.03
2018-05-27T02:40:13.962Z,84.00
2018-05-27T02:40:45.163Z,84.04
2018-05-27T02:41:16.349Z,83.93
2018-05-27T02:41:47.537Z,83.96
2018-05-27T02:42:18.723Z,83.98
2018-05-27T02:42:49.917Z,83.81
2018-05-27T02:43:21.100Z,83.80
2018-05-27T02:43:52.333Z,83.97
2018-05-27T02:44:23.518Z,84.07
2018-05-27T02:44:54.732Z,84.35
2018-05-27T02:45:25.922Z,84.69
2018-05-27T02:45:57.109Z,84.34
2018-05-27T02:46:28.317Z,84.06
2018-05-27T02:46:59.516Z,83.94
2018-05-27T02:47:30.708Z,83.80
2018-05-27T02:48:01.942Z,83.87
2018-05-27T02:48:33.125Z,83.82
2018-05-27T02:49:04.369Z,83.74
2018-05-27T02:49:35.556Z,83.65
2018-05-27T02:50:06.737Z,83.34
2018-05-27T02:50:37.928Z,83.20
2018-05-27T02:51:09.125Z,83.34
2018-05-27T02:51:40.348Z,83.31
2018-05-27T02:52:11.525Z,83.18
2018-05-27T02:52:42.710Z,82.90
2018-05-27T02:53:13.902Z,82.98
2018-05-27T02:53:45.137Z,82.81
2018-05-27T02:54:16.328Z,82.90
2018-05-27T02:54:47.571Z,82.76
2018-05-27T02:55:18.757Z,82.93
2018-05-27T02:55:49.937Z,82.92
2018-05-27T02:56:21.120Z,82.93
2018-05-27T02:56:52.298Z,82.88
2018-05-27T02:57:23.517Z,82.89
2018-05-27T02:57:54.743Z,82.76
2018-05-27T02:58:25.945Z,82.78
2018-05-27T02:58:57.129Z,82.90
2018-05-27T02:59:28.304Z,82.66
2018-05-27T02:59:59.491Z,82.73
2018-05-27T03:00:30.681Z,82.55
2018-05-27T03:01:01.904Z,82.66
2018-05-27T03:01:33.083Z,82.62
2018-05-27T03:02:04.261Z,82.46
2018-05-27T03:02:35.448Z,82.44
2018-05-27T03:03:06.638Z,82.26
2018-05-27T03:03:37.818Z,82.32
2018-05-27T03:04:09.001Z,82.17
2018-05-27T03:04:40.186Z,82.11
2018-05-27T03:05:11.373Z,81.50
2018-05-27T03:05:42.595Z,81.25
2018-05-27T03:06:13.784Z,81.08
2018-05-27T03:06:44.978Z,80.55
2018-05-27T03:07:16.171Z,80.24
2018-05-27T03:07:47.345Z,80.45
2018-05-27T03:08:18.525Z,80.41
2018-05-27T03:08:49.910Z,80.47
2018-05-27T03:09:21.127Z,79.92
2018-05-27T03:09:53.933Z,80.02
2018-05-27T03:10:25.153Z,80.08
2018-05-27T03:10:56.341Z,79.73
2018-05-27T03:11:27.529Z,79.73
2018-05-27T03:11:58.728Z,79.67
2018-05-27T03:12:29.910Z,79.42
2018-05-27T03:13:01.093Z,79.43
2018-05-27T03:13:32.287Z,79.13
2018-05-27T03:14:03.528Z,78.90
2018-05-27T03:14:34.740Z,78.75
2018-05-27T03:15:07.026Z,78.79
2018-05-27T03:15:38.213Z,78.87
2018-05-27T03:16:09.401Z,78.94
2018-05-27T03:16:40.660Z,78.96
2018-05-27T03:17:11.833Z,79.21
2018-05-27T03:17:43.057Z,79.29
2018-05-27T03:18:14.241Z,78.85
2018-05-27T03:18:45.422Z,78.77
2018-05-27T03:19:16.616Z,78.64
2018-05-27T03:19:47.798Z,78.48
2018-05-27T03:20:19.690Z,78.45
2018-05-27T03:20:50.930Z,78.56
2018-05-27T03:21:22.122Z,78.54
2018-05-27T03:21:53.315Z,78.46
2018-05-27T03:22:24.497Z,78.46
2018-05-27T03:22:55.730Z,78.72
2018-05-27T03:23:26.920Z,78.66
2018-05-27T03:23:58.109Z,78.52
2018-05-27T03:24:29.293Z,78.44
2018-05-27T03:25:00.478Z,78.19
2018-05-27T03:25:31.661Z,78.06
2018-05-27T03:26:02.841Z,78.19
2018-05-27T03:26:34.034Z,77.99
2018-05-27T03:27:05.225Z,77.99
2018-05-27T03:27:36.417Z,78.04
2018-05-27T03:28:07.643Z,77.95
2018-05-27T03:28:38.839Z,78.10
2018-05-27T03:29:11.099Z,78.18
2018-05-27T03:29:42.284Z,78.35
2018-05-27T03:30:13.464Z,78.40
2018-05-27T03:30:44.653Z,78.47
2018-05-27T03:31:15.829Z,78.41
2018-05-27T03:31:47.060Z,78.52
2018-05-27T03:32:18.257Z,78.51
2018-05-27T03:32:49.433Z,78.52
2018-05-27T03:33:20.623Z,78.51
2018-05-27T03:33:51.847Z,78.31
2018-05-27T03:34:23.033Z,78.19
2018-05-27T03:34:54.223Z,78.42
2018-05-27T03:35:25.425Z,78.93
2018-05-27T03:35:56.649Z,79.11
2018-05-27T03:36:27.839Z,78.81
2018-05-27T03:36:59.031Z,79.01
2018-05-27T03:37:30.208Z,78.95
2018-05-27T03:38:01.410Z,79.02
2018-05-27T03:38:32.601Z,79.23
2018-05-27T03:39:03.863Z,79.08
2018-05-27T03:39:35.064Z,79.20
2018-05-27T03:40:06.273Z,78.89
2018-05-27T03:40:37.461Z,78.56
2018-05-27T03:41:08.662Z,78.53
2018-05-27T03:41:39.842Z,78.40
2018-05-27T03:42:11.061Z,78.43
2018-05-27T03:42:42.506Z,77.95
2018-05-27T03:43:13.696Z,78.08
2018-05-27T03:43:44.882Z,78.19
2018-05-27T03:44:16.071Z,77.91
2018-05-27T03:44:47.299Z,78.00
2018-05-27T03:45:19.264Z,78.17
2018-05-27T03:45:50.445Z,78.06
2018-05-27T03:46:21.669Z,78.08
2018-05-27T03:46:53.307Z,78.24
2018-05-27T03:47:25.562Z,78.18
2018-05-27T03:47:56.740Z,78.67
2018-05-27T03:48:27.920Z,79.01
2018-05-27T03:48:59.111Z,78.82
2018-05-27T03:49:30.305Z,78.81
2018-05-27T03:50:01.525Z,78.36
2018-05-27T03:50:32.732Z,79.04
2018-05-27T03:51:03.921Z,78.46
2018-05-27T03:51:35.105Z,78.76
2018-05-27T03:52:06.292Z,78.56
2018-05-27T03:52:37.478Z,78.65
2018-05-27T03:53:08.660Z,78.80
2018-05-27T03:53:39.848Z,78.47
2018-05-27T03:54:11.072Z,78.19
2018-05-27T03:54:42.252Z,78.59
2018-05-27T03:55:13.437Z,78.46
2018-05-27T03:55:44.672Z,78.12
2018-05-27T03:56:15.854Z,77.85
2018-05-27T03:56:47.033Z,77.96
2018-05-27T03:57:18.217Z,77.74
2018-05-27T03:57:49.408Z,77.64
2018-05-27T03:58:20.588Z,77.26
2018-05-27T03:58:51.769Z,77.96
2018-05-27T03:59:22.946Z,78.18
2018-05-27T03:59:54.137Z,78.12
2018-05-27T04:00:25.324Z,78.02
2018-05-27T04:00:56.546Z,77.78
2018-05-27T04:01:27.733Z,77.15
2018-05-27T04:01:58.938Z,77.35
2018-05-27T04:02:30.126Z,77.29
2018-05-27T04:03:01.319Z,77.44
2018-05-27T04:03:32.531Z,77.67
2018-05-27T04:04:03.782Z,77.79
2018-05-27T04:04:34.982Z,78.16
2018-05-27T04:05:06.207Z,78.52
2018-05-27T04:05:37.397Z,78.60
2018-05-27T04:06:08.591Z,78.57
2018-05-27T04:06:39.772Z,78.67
2018-05-27T04:07:11.010Z,78.88
2018-05-27T04:07:42.210Z,78.81
2018-05-27T04:08:13.397Z,78.37
2018-05-27T04:08:44.586Z,78.67
2018-05-27T04:09:15.780Z,79.23
2018-05-27T04:09:46.969Z,79.07
2018-05-27T04:10:18.160Z,79.08
2018-05-27T04:10:49.353Z,78.92
2018-05-27T04:11:20.532Z,78.47
2018-05-27T04:11:51.712Z,77.68
2018-05-27T04:12:22.941Z,77.69
2018-05-27T04:12:54.133Z,77.76
2018-05-27T04:13:25.313Z,77.76
2018-05-27T04:13:56.507Z,77.71
2018-05-27T04:14:27.709Z,77.51
2018-05-27T04:14:58.923Z,77.27
2018-05-27T04:15:30.115Z,76.96
2018-05-27T04:16:01.316Z,76.44
2018-05-27T04:16:32.550Z,76.11
2018-05-27T04:17:03.756Z,76.00
2018-05-27T04:17:34.947Z,75.12
2018-05-27T04:18:06.214Z,75.21
2018-05-27T04:18:37.404Z,75.38
2018-05-27T04:19:08.598Z,75.59
2018-05-27T04:19:39.795Z,74.72
2018-05-27T04:20:10.972Z,74.02
2018-05-27T04:20:42.158Z,73.98
2018-05-27T04:21:13.361Z,74.18
2018-05-27T04:21:44.547Z,72.53
2018-05-27T04:22:15.729Z,72.14
2018-05-27T04:22:46.905Z,71.90
2018-05-27T04:23:18.181Z,72.90
2018-05-27T04:23:49.409Z,73.98
2018-05-27T04:24:20.602Z,74.36
2018-05-27T04:24:51.792Z,74.09
2018-05-27T04:25:22.977Z,74.17
2018-05-27T04:25:54.170Z,73.73
2018-05-27T04:26:25.353Z,73.56
2018-05-27T04:26:56.543Z,73.33
2018-05-27T04:27:27.757Z,73.19
2018-05-27T04:27:58.948Z,72.77
2018-05-27T04:28:30.207Z,71.97
2018-05-27T04:29:01.431Z,71.25
2018-05-27T04:29:32.621Z,71.32
2018-05-27T04:30:03.812Z,71.85
2018-05-27T04:30:35.000Z,72.68
2018-05-27T04:31:06.184Z,72.50
2018-05-27T04:31:37.368Z,72.45
2018-05-27T04:32:08.552Z,71.92
2018-05-27T04:32:39.736Z,72.08
2018-05-27T04:33:10.930Z,72.09
2018-05-27T04:33:42.113Z,71.86
2018-05-27T04:34:13.350Z,72.29
2018-05-27T04:34:44.561Z,72.89
2018-05-27T04:35:15.741Z,73.34
2018-05-27T04:35:46.969Z,73.22
2018-05-27T04:36:18.150Z,72.30
2018-05-27T04:36:49.342Z,71.90
2018-05-27T04:37:20.538Z,72.23
2018-05-27T04:37:51.725Z,72.54
2018-05-27T04:38:22.973Z,71.98
2018-05-27T04:38:54.154Z,72.49
2018-05-27T04:39:25.337Z,71.70
2018-05-27T04:39:56.516Z,71.57
2018-05-27T04:40:27.713Z,71.62
2018-05-27T04:40:58.909Z,72.04
2018-05-27T04:41:30.104Z,72.49
2018-05-27T04:42:01.292Z,72.39
2018-05-27T04:42:32.485Z,72.62
2018-05-27T04:43:03.721Z,72.87
2018-05-27T04:43:34.914Z,73.38
2018-05-27T04:44:06.098Z,73.35
2018-05-27T04:44:37.278Z,73.31
2018-05-27T04:45:08.457Z,72.94
2018-05-27T04:45:39.638Z,72.76
2018-05-27T04:46:10.821Z,72.80
2018-05-27T04:46:42.009Z,72.47
2018-05-27T04:47:13.199Z,72.43
2018-05-27T04:47:44.385Z,72.73
2018-05-27T04:48:15.625Z,73.53
2018-05-27T04:48:46.809Z,73.41
2018-05-27T04:49:17.992Z,72.81
2018-05-27T04:49:49.176Z,72.56
2018-05-27T04:50:20.373Z,72.77
2018-05-27T04:50:51.565Z,72.63
2018-05-27T04:51:22.765Z,73.07
2018-05-27T04:51:53.977Z,73.29
2018-05-27T04:52:25.509Z,73.49
2018-05-27T04:52:57.011Z,73.61
2018-05-27T04:53:28.292Z,73.19
2018-05-27T04:53:59.653Z,73.29
2018-05-27T04:54:30.903Z,73.94
2018-05-27T04:55:02.117Z,73.23
2018-05-27T04:55:33.316Z,72.69
2018-05-27T04:56:04.501Z,73.19
2018-05-27T04:56:35.691Z,73.27
2018-05-27T04:57:06.880Z,73.07
2018-05-27T04:57:38.069Z,73.04
2018-05-27T04:58:09.266Z,72.35
2018-05-27T04:58:40.508Z,72.52
2018-05-27T04:59:11.698Z,72.53
2018-05-27T04:59:42.896Z,72.72
2018-05-27T05:00:14.099Z,73.15
2018-05-27T05:00:45.285Z,72.86
2018-05-27T05:01:16.474Z,72.82
2018-05-27T05:01:47.665Z,71.95
2018-05-27T05:02:18.893Z,70.54
2018-05-27T05:02:50.080Z,69.78
2018-05-27T05:03:21.280Z,68.98
2018-05-27T05:03:52.469Z,68.34
2018-05-27T05:04:23.681Z,68.21
2018-05-27T05:04:54.869Z,68.42
2018-05-27T05:05:26.056Z,68.55
2018-05-27T05:05:57.245Z,68.77
2018-05-27T05:06:28.434Z,68.79
2018-05-27T05:06:59.668Z,67.61
2018-05-27T05:07:30.866Z,67.48
2018-05-27T05:08:02.065Z,67.30
2018-05-27T05:08:33.259Z,66.75
2018-05-27T05:09:04.449Z,68.15
2018-05-27T05:09:35.653Z,69.43
2018-05-27T05:10:06.857Z,69.35
2018-05-27T05:10:38.050Z,69.04
2018-05-27T05:11:09.291Z,69.05
2018-05-27T05:11:40.513Z,69.82
2018-05-27T05:12:11.721Z,69.40
2018-05-27T05:12:42.905Z,68.08
2018-05-27T05:13:14.091Z,68.71
2018-05-27T05:13:45.300Z,69.54
2018-05-27T05:14:16.497Z,68.79
2018-05-27T05:14:47.733Z,68.28
2018-05-27T05:15:18.921Z,68.01
2018-05-27T05:15:50.108Z,66.97
2018-05-27T05:16:21.357Z,67.36
2018-05-27T05:16:52.566Z,67.67
2018-05-27T05:17:23.768Z,67.98
2018-05-27T05:17:54.970Z,67.32
2018-05-27T05:18:26.165Z,65.42
2018-05-27T05:18:57.360Z,63.13
2018-05-27T05:19:28.554Z,60.71
2018-05-27T05:19:59.761Z,59.80
2018-05-27T05:20:30.953Z,58.82
2018-05-27T05:21:02.153Z,58.56
2018-05-27T05:21:33.370Z,57.87
2018-05-27T05:22:04.612Z,56.36
2018-05-27T05:22:35.783Z,56.25
2018-05-27T05:23:07.093Z,54.51
2018-05-27T05:23:38.285Z,53.30
2018-05-27T05:24:09.467Z,53.24
2018-05-27T05:24:40.644Z,50.66
2018-05-27T05:25:11.825Z,50.19
2018-05-27T05:25:43.013Z,49.51
2018-05-27T05:26:14.197Z,48.22
2018-05-27T05:26:45.373Z,49.25
2018-05-27T05:27:16.553Z,49.14
2018-05-27T05:27:47.784Z,48.27
2018-05-27T05:28:18.979Z,48.43
2018-05-27T05:28:50.153Z,47.57
2018-05-27T05:29:21.342Z,48.35
2018-05-27T05:29:52.520Z,47.80
2018-05-27T05:30:23.704Z,46.67
2018-05-27T05:30:54.885Z,46.57
2018-05-27T05:31:26.067Z,46.61
2018-05-27T05:31:57.244Z,44.29
2018-05-27T05:32:28.421Z,45.55
2018-05-27T05:32:59.637Z,45.92
2018-05-27T05:33:30.826Z,45.19
2018-05-27T05:34:02.038Z,45.17
2018-05-27T05:34:33.217Z,47.45
2018-05-27T05:35:04.393Z,47.09
2018-05-27T05:35:35.564Z,47.12
2018-05-27T05:36:06.733Z,47.35
2018-05-27T05:36:37.905Z,47.18
2018-05-27T05:37:09.141Z,47.92
2018-05-27T05:37:40.318Z,47.39
2018-05-27T05:38:11.544Z,46.18
2018-05-27T05:38:42.772Z,47.47
2018-05-27T05:39:13.948Z,47.68
2018-05-27T05:39:45.124Z,47.85
2018-05-27T05:40:16.320Z,47.28
2018-05-27T05:40:47.504Z,46.68
2018-05-27T05:41:18.734Z,47.24
2018-05-27T05:41:49.909Z,47.66
2018-05-27T05:42:21.091Z,47.36
2018-05-27T05:42:52.269Z,46.77
2018-05-27T05:43:23.484Z,47.74
2018-05-27T05:43:54.665Z,48.86
2018-05-27T05:44:25.893Z,48.74
2018-05-27T05:44:57.105Z,48.77
2018-05-27T05:45:28.281Z,48.61
2018-05-27T05:45:59.464Z,49.48
2018-05-27T05:46:30.646Z,49.75
2018-05-27T05:47:01.837Z,50.64
2018-05-27T05:47:33.018Z,50.63
2018-05-27T05:48:04.209Z,52.12
2018-05-27T05:48:35.385Z,51.95
2018-05-27T05:49:06.568Z,52.08
2018-05-27T05:49:37.794Z,52.08
2018-05-27T05:50:08.984Z,52.34
2018-05-27T05:50:40.156Z,52.47
2018-05-27T05:51:11.338Z,52.10
2018-05-27T05:51:42.534Z,52.27
2018-05-27T05:52:13.712Z,51.56
2018-05-27T05:52:44.889Z,51.52
2018-05-27T05:53:16.069Z,53.09
2018-05-27T05:53:47.260Z,53.19
2018-05-27T05:54:18.445Z,52.99
2018-05-27T05:54:49.666Z,53.61
2018-05-27T05:55:20.881Z,53.29
2018-05-27T05:55:52.084Z,53.96
2018-05-27T05:56:23.268Z,54.17
2018-05-27T05:56:54.463Z,53.88
2018-05-27T05:57:25.657Z,53.57
2018-05-27T05:57:56.845Z,55.59
2018-05-27T05:58:28.029Z,54.58
2018-05-27T05:58:59.216Z,53.72
2018-05-27T05:59:30.396Z,52.93
2018-05-27T06:00:01.627Z,52.80
2018-05-27T06:00:32.812Z,51.78
2018-05-27T06:01:03.991Z,52.29
2018-05-27T06:01:35.169Z,53.27
2018-05-27T06:02:06.458Z,52.75
2018-05-27T06:02:37.646Z,52.68
2018-05-27T06:03:08.831Z,52.70
2018-05-27T06:03:40.020Z,53.13
2018-05-27T06:04:11.201Z,53.15
2018-05-27T06:04:42.386Z,52.90
2018-05-27T06:05:13.616Z,52.71
2018-05-27T06:05:44.797Z,52.45
2018-05-27T06:06:15.983Z,52.91
2018-05-27T06:06:47.164Z,52.47
2018-05-27T06:07:18.343Z,52.45
2018-05-27T06:07:49.540Z,52.13
2018-05-27T06:08:20.730Z,51.89
2018-05-27T06:08:51.910Z,51.56
2018-05-27T06:09:23.093Z,52.34
2018-05-27T06:09:54.277Z,52.79
2018-05-27T06:10:25.510Z,52.98
2018-05-27T06:10:56.693Z,52.80
2018-05-27T06:11:27.872Z,52.65
2018-05-27T06:11:59.053Z,52.11
2018-05-27T06:12:30.230Z,51.05
2018-05-27T06:13:01.427Z,50.24
2018-05-27T06:13:32.650Z,49.77
2018-05-27T06:14:03.813Z,50.01
2018-05-27T06:14:34.989Z,50.87
2018-05-27T06:15:06.169Z,51.02
2018-05-27T06:15:37.396Z,51.04
2018-05-27T06:16:08.589Z,51.47
2018-05-27T06:16:39.778Z,52.12
2018-05-27T06:17:11.011Z,52.19
2018-05-27T06:17:42.198Z,52.24
2018-05-27T06:18:13.377Z,51.78
2018-05-27T06:18:44.565Z,52.00
2018-05-27T06:19:15.771Z,51.61
2018-05-27T06:19:46.952Z,50.80
2018-05-27T06:20:18.131Z,50.93
2018-05-27T06:20:49.310Z,50.99
2018-05-27T06:21:20.490Z,50.55
2018-05-27T06:21:51.672Z,50.28
2018-05-27T06:22:22.885Z,49.54
2018-05-27T06:22:54.076Z,48.95
2018-05-27T06:23:25.270Z,48.28
2018-05-27T06:23:56.452Z,48.48
2018-05-27T06:24:27.642Z,48.20
2018-05-27T06:24:58.817Z,48.21
2018-05-27T06:25:29.997Z,48.64
2018-05-27T06:26:01.216Z,48.62
2018-05-27T06:26:32.436Z,48.60
2018-05-27T06:27:03.621Z,48.76
2018-05-27T06:27:34.814Z,48.45
2018-05-27T06:28:05.998Z,48.04
2018-05-27T06:28:37.194Z,47.36
2018-05-27T06:29:08.378Z,48.05
2018-05-27T06:29:39.571Z,47.37
2018-05-27T06:30:10.759Z,47.23
2018-05-27T06:30:41.973Z,47.80
2018-05-27T06:31:13.151Z,48.99
2018-05-27T06:31:44.328Z,48.56
2018-05-27T06:32:15.509Z,48.64
2018-05-27T06:32:46.693Z,48.46
2018-05-27T06:33:20.476Z,48.37
2018-05-27T06:33:51.659Z,47.08
2018-05-27T06:34:22.847Z,47.63
2018-05-27T06:34:54.070Z,47.20
2018-05-27T06:35:25.245Z,46.46
2018-05-27T06:35:56.445Z,46.91
2018-05-27T06:36:27.639Z,46.96
2018-05-27T06:36:58.818Z,46.78
2018-05-27T06:37:30.009Z,47.09
2018-05-27T06:38:01.198Z,47.50
2018-05-27T06:38:32.379Z,47.76
2018-05-27T06:39:03.557Z,47.97
2018-05-27T06:39:34.792Z,48.26
2018-05-27T06:40:06.104Z,48.43
2018-05-27T06:40:37.285Z,48.63
2018-05-27T06:41:08.466Z,48.72
2018-05-27T06:41:39.654Z,46.97
2018-05-27T06:42:10.840Z,46.52